createdAt,value
2022-12-12T00:00:36.911Z,0.000000
2022-12-12T00:01:04.500Z,0.000000
2022-12-12T00:02:00.798Z,0.000000
2022-12-12T00:03:00.975Z,0.000000
2022-12-12T00:04:01.025Z,0.000000
2022-12-12T00:05:05.419Z,0.000000
2022-12-12T00:06:00.881Z,0.000000
2022-12-12T00:07:00.777Z,0.000000
2022-12-12T00:08:00.952Z,0.000000
2022-12-12T00:09:00.800Z,0.000000
2022-12-12T00:10:05.686Z,0.000000
2022-12-12T00:11:00.858Z,0.000000
2022-12-12T00:12:00.909Z,0.000000
2022-12-12T00:13:00.844Z,0.000000
2022-12-12T00:14:00.923Z,0.000000
2022-12-12T00:15:04.735Z,0.000000
2022-12-12T00:16:00.965Z,0.000000
2022-12-12T00:17:00.902Z,0.000000
2022-12-12T00:18:01.053Z,0.000000
2022-12-12T00:19:00.900Z,0.000000
2022-12-12T00:20:05.024Z,0.000000
2022-12-12T00:21:00.911Z,0.000000
2022-12-12T00:22:00.982Z,0.000000
2022-12-12T00:23:00.938Z,0.000000
2022-12-12T00:24:01.016Z,0.000000
2022-12-12T00:25:05.569Z,0.000000
2022-12-12T00:26:00.996Z,0.000000
2022-12-12T00:27:00.960Z,0.000000
2022-12-12T00:28:01.030Z,0.000000
2022-12-12T00:29:00.996Z,0.000000
2022-12-12T00:30:37.186Z,0.000000
2022-12-12T00:31:01.018Z,0.000000
2022-12-12T00:32:01.080Z,0.000000
2022-12-12T00:33:01.013Z,0.000000
2022-12-12T00:34:01.079Z,0.000000
2022-12-12T00:35:05.641Z,0.000000
2022-12-12T00:36:01.085Z,0.000000
2022-12-12T00:37:01.020Z,0.000000
2022-12-12T00:38:01.100Z,0.000000
2022-12-12T00:39:01.047Z,0.000000
2022-12-12T00:40:04.992Z,0.000000
2022-12-12T00:41:01.056Z,0.000000
2022-12-12T00:42:01.128Z,0.000000
2022-12-12T00:43:01.048Z,0.000000
2022-12-12T00:44:01.129Z,0.000000
2022-12-12T00:45:05.706Z,0.000000
2022-12-12T00:46:01.279Z,0.000000
2022-12-12T00:47:01.106Z,0.000000
2022-12-12T00:48:01.165Z,0.000000
2022-12-12T00:49:01.086Z,0.000000
2022-12-12T00:50:06.412Z,0.000000
2022-12-12T00:51:01.126Z,0.000000
2022-12-12T00:52:01.319Z,0.000000
2022-12-12T00:53:01.131Z,0.000000
2022-12-12T00:54:01.214Z,0.000000
2022-12-12T00:55:04.965Z,0.000000
2022-12-12T00:56:01.258Z,0.000000
2022-12-12T00:57:01.202Z,0.000000
2022-12-12T00:58:01.255Z,0.000000
2022-12-12T00:59:01.160Z,0.000000
2022-12-12T01:00:06.053Z,0.000000
2022-12-12T01:01:00.189Z,0.000000
2022-12-12T01:02:00.354Z,0.000000
2022-12-12T01:03:00.240Z,0.000000
2022-12-12T01:04:00.289Z,0.000000
2022-12-12T01:05:03.812Z,0.000000
2022-12-12T01:06:00.286Z,0.000000
2022-12-12T01:07:00.199Z,0.000000
2022-12-12T01:08:00.367Z,0.000000
2022-12-12T01:09:00.235Z,0.000000
2022-12-12T01:10:05.179Z,0.000000
2022-12-12T01:11:00.255Z,0.000000
2022-12-12T01:12:01.101Z,0.000000
2022-12-12T01:13:00.240Z,0.000000
2022-12-12T01:14:00.325Z,0.000000
2022-12-12T01:15:04.019Z,0.000000
2022-12-12T01:16:00.437Z,0.000000
2022-12-12T01:17:00.276Z,0.000000
2022-12-12T01:18:00.339Z,0.000000
2022-12-12T01:19:00.306Z,0.000000
2022-12-12T01:20:05.344Z,0.000000
2022-12-12T01:21:00.319Z,0.000000
2022-12-12T01:22:00.417Z,0.000000
2022-12-12T01:23:00.299Z,0.000000
2022-12-12T01:24:00.401Z,0.000000
2022-12-12T01:25:04.322Z,0.000000
2022-12-12T01:26:01.028Z,0.000000
2022-12-12T01:27:00.328Z,0.000000
2022-12-12T01:28:00.469Z,0.000000
2022-12-12T01:29:00.337Z,0.000000
2022-12-12T01:30:06.001Z,0.000000
2022-12-12T01:31:00.413Z,0.000000
2022-12-12T01:32:00.460Z,0.000000
2022-12-12T01:33:00.403Z,0.000000
2022-12-12T01:34:00.480Z,0.000000
2022-12-12T01:35:04.134Z,0.000000
2022-12-12T01:36:00.480Z,0.000000
2022-12-12T01:37:00.395Z,0.000000
2022-12-12T01:38:00.492Z,0.000000
2022-12-12T01:39:00.438Z,0.000000
2022-12-12T01:40:05.527Z,0.000000
2022-12-12T01:41:00.436Z,0.000000
2022-12-12T01:42:00.535Z,0.000000
2022-12-12T01:43:00.447Z,0.000000
2022-12-12T01:44:01.012Z,0.000000
2022-12-12T01:45:05.856Z,0.000000
2022-12-12T01:46:00.564Z,0.000000
2022-12-12T01:47:00.596Z,0.000000
2022-12-12T01:48:04.992Z,0.000000
2022-12-12T01:49:00.511Z,0.000000
2022-12-12T01:50:04.338Z,0.000000
2022-12-12T01:51:00.528Z,0.000000
2022-12-12T01:52:00.629Z,0.000000
2022-12-12T01:53:00.526Z,0.000000
2022-12-12T01:54:00.611Z,0.000000
2022-12-12T01:55:05.188Z,0.000000
2022-12-12T01:56:00.607Z,0.000000
2022-12-12T01:57:00.587Z,0.000000
2022-12-12T01:58:01.047Z,0.000000
2022-12-12T01:59:00.578Z,0.000000
2022-12-12T02:00:05.462Z,0.000000
2022-12-12T02:01:00.601Z,0.000000
2022-12-12T02:02:01.027Z,0.000000
2022-12-12T02:03:00.622Z,0.000000
2022-12-12T02:04:00.773Z,0.000000
2022-12-12T02:05:05.246Z,0.000000
2022-12-12T02:06:00.979Z,0.000000
2022-12-12T02:07:00.642Z,0.000000
2022-12-12T02:08:00.762Z,0.000000
2022-12-12T02:09:00.680Z,0.000000
2022-12-12T02:10:05.697Z,0.000000
2022-12-12T02:11:00.672Z,0.000000
2022-12-12T02:12:00.759Z,0.000000
2022-12-12T02:13:00.675Z,0.000000
2022-12-12T02:14:00.974Z,0.000000
2022-12-12T02:15:04.391Z,0.000000
2022-12-12T02:16:00.870Z,0.000000
2022-12-12T02:17:00.712Z,0.000000
2022-12-12T02:18:03.581Z,0.000000
2022-12-12T02:19:00.736Z,0.000000
2022-12-12T02:20:05.593Z,0.000000
2022-12-12T02:21:00.761Z,0.000000
2022-12-12T02:22:00.865Z,0.000000
2022-12-12T02:23:00.771Z,0.000000
2022-12-12T02:24:00.840Z,0.000000
2022-12-12T02:25:05.441Z,0.000000
2022-12-12T02:26:00.845Z,0.000000
2022-12-12T02:27:00.797Z,0.000000
2022-12-12T02:28:01.028Z,0.000000
2022-12-12T02:29:00.789Z,0.000000
2022-12-12T02:30:05.743Z,0.000000
2022-12-12T02:31:00.882Z,0.000000
2022-12-12T02:32:01.023Z,0.000000
2022-12-12T02:33:00.824Z,0.000000
2022-12-12T02:34:00.923Z,0.000000
2022-12-12T02:35:04.576Z,0.000000
2022-12-12T02:36:00.939Z,0.000000
2022-12-12T02:37:00.849Z,0.000000
2022-12-12T02:38:00.903Z,0.000000
2022-12-12T02:39:00.890Z,0.000000
2022-12-12T02:40:06.276Z,0.000000
2022-12-12T02:41:00.871Z,0.000000
2022-12-12T02:42:00.953Z,0.000000
2022-12-12T02:43:00.887Z,0.000000
2022-12-12T02:44:01.002Z,0.000000
2022-12-12T02:45:04.498Z,0.000000
2022-12-12T02:46:00.980Z,0.000000
2022-12-12T02:47:00.932Z,0.000000
2022-12-12T02:48:01.028Z,0.000000
2022-12-12T02:49:00.944Z,0.000000
2022-12-12T02:50:05.751Z,0.000000
2022-12-12T02:51:00.943Z,0.000000
2022-12-12T02:52:01.050Z,0.000000
2022-12-12T02:53:00.944Z,0.000000
2022-12-12T02:54:01.033Z,0.000000
2022-12-12T02:55:05.047Z,0.000000
2022-12-12T02:56:01.042Z,0.000000
2022-12-12T02:57:00.995Z,0.000000
2022-12-12T02:58:01.076Z,0.000000
2022-12-12T02:59:00.985Z,0.000000
2022-12-12T03:00:05.989Z,0.000000
2022-12-12T03:01:01.094Z,0.000000
2022-12-12T03:02:01.116Z,0.000000
2022-12-12T03:03:01.041Z,0.000000
2022-12-12T03:04:01.164Z,0.000000
2022-12-12T03:05:04.616Z,0.000000
2022-12-12T03:06:01.127Z,0.000000
2022-12-12T03:07:01.066Z,0.000000
2022-12-12T03:08:01.168Z,0.000000
2022-12-12T03:09:01.086Z,0.000000
2022-12-12T03:10:05.975Z,0.000000
2022-12-12T03:11:01.063Z,0.000000
2022-12-12T03:12:01.148Z,0.000000
2022-12-12T03:13:01.082Z,0.000000
2022-12-12T03:14:01.156Z,0.000000
2022-12-12T03:15:04.698Z,0.000000
2022-12-12T03:16:01.267Z,0.000000
2022-12-12T03:17:01.119Z,0.000000
2022-12-12T03:18:01.187Z,0.000000
2022-12-12T03:19:01.114Z,0.000000
2022-12-12T03:20:06.263Z,0.000000
2022-12-12T03:21:01.152Z,0.000000
2022-12-12T03:22:01.270Z,0.000000
2022-12-12T03:23:01.169Z,0.000000
2022-12-12T03:24:01.222Z,0.000000
2022-12-12T03:25:04.851Z,0.000000
2022-12-12T03:26:01.234Z,0.000000
2022-12-12T03:27:01.183Z,0.000000
2022-12-12T03:28:01.025Z,0.000000
2022-12-12T03:29:00.199Z,0.000000
2022-12-12T03:30:12.378Z,0.000000
2022-12-12T03:31:00.216Z,0.000000
2022-12-12T03:32:01.037Z,0.000000
2022-12-12T03:33:00.215Z,0.000000
2022-12-12T03:34:00.298Z,0.000000
2022-12-12T03:35:06.069Z,0.000000
2022-12-12T03:36:01.056Z,0.000000
2022-12-12T03:37:00.223Z,0.000000
2022-12-12T03:38:00.300Z,0.000000
2022-12-12T03:39:00.239Z,0.000000
2022-12-12T03:40:04.341Z,0.000000
2022-12-12T03:41:00.260Z,0.000000
2022-12-12T03:42:00.339Z,0.000000
2022-12-12T03:43:00.252Z,0.000000
2022-12-12T03:44:15.712Z,0.000000
2022-12-12T03:45:04.942Z,0.000000
2022-12-12T03:46:00.444Z,0.000000
2022-12-12T03:47:00.297Z,0.000000
2022-12-12T03:48:00.379Z,0.000000
2022-12-12T03:49:00.301Z,0.000000
2022-12-12T03:50:04.197Z,0.000000
2022-12-12T03:51:00.328Z,0.000000
2022-12-12T03:52:00.444Z,0.000000
2022-12-12T03:53:00.314Z,0.000000
2022-12-12T03:54:00.436Z,0.000000
2022-12-12T03:55:05.016Z,0.000000
2022-12-12T03:56:00.425Z,0.000000
2022-12-12T03:57:00.390Z,0.000000
2022-12-12T03:58:00.468Z,0.000000
2022-12-12T03:59:00.380Z,0.000000
2022-12-12T04:00:04.437Z,0.000000
2022-12-12T04:01:00.481Z,0.000000
2022-12-12T04:02:00.569Z,0.000000
2022-12-12T04:03:00.395Z,0.000000
2022-12-12T04:04:00.478Z,0.000000
2022-12-12T04:05:05.059Z,0.000000
2022-12-12T04:06:00.503Z,0.000000
2022-12-12T04:07:00.415Z,0.000000
2022-12-12T04:08:00.624Z,0.000000
2022-12-12T04:09:00.439Z,0.000000
2022-12-12T04:10:05.570Z,0.000000
2022-12-12T04:11:00.429Z,0.000000
2022-12-12T04:12:00.545Z,0.000000
2022-12-12T04:13:00.450Z,0.000000
2022-12-12T04:14:00.543Z,0.000000
2022-12-12T04:15:04.307Z,0.000000
2022-12-12T04:16:00.590Z,0.000000
2022-12-12T04:17:00.568Z,0.000000
2022-12-12T04:18:00.578Z,0.000000
2022-12-12T04:19:00.505Z,0.000000
2022-12-12T04:20:05.467Z,0.000000
2022-12-12T04:21:00.522Z,0.000000
2022-12-12T04:22:00.612Z,0.000000
2022-12-12T04:23:00.513Z,0.000000
2022-12-12T04:24:00.641Z,0.000000
2022-12-12T04:25:04.256Z,0.000000
2022-12-12T04:26:00.619Z,0.000000
2022-12-12T04:27:00.558Z,0.000000
2022-12-12T04:28:00.640Z,0.000000
2022-12-12T04:29:00.562Z,0.000000
2022-12-12T04:30:06.587Z,0.000000
2022-12-12T04:31:00.614Z,0.000000
2022-12-12T04:32:00.765Z,0.000000
2022-12-12T04:33:00.642Z,0.000000
2022-12-12T04:34:00.727Z,0.000000
2022-12-12T04:35:05.316Z,0.000000
2022-12-12T04:36:00.722Z,0.000000
2022-12-12T04:37:00.652Z,0.000000
2022-12-12T04:38:00.734Z,0.000000
2022-12-12T04:39:00.664Z,0.000000
2022-12-12T04:40:05.834Z,0.000000
2022-12-12T04:41:00.669Z,0.000000
2022-12-12T04:42:00.765Z,0.000000
2022-12-12T04:43:00.678Z,0.000000
2022-12-12T04:44:00.759Z,0.000000
2022-12-12T04:45:04.564Z,0.000000
2022-12-12T04:46:00.830Z,0.000000
2022-12-12T04:47:00.702Z,0.000000
2022-12-12T04:48:00.788Z,0.000000
2022-12-12T04:49:00.729Z,0.000000
2022-12-12T04:50:05.647Z,0.000000
2022-12-12T04:51:00.748Z,0.000000
2022-12-12T04:52:00.841Z,0.000000
2022-12-12T04:53:00.719Z,0.000000
2022-12-12T04:54:00.841Z,0.000000
2022-12-12T04:55:04.598Z,0.000000
2022-12-12T04:56:00.833Z,0.000000
2022-12-12T04:57:00.775Z,0.000000
2022-12-12T04:58:00.868Z,0.000000
2022-12-12T04:59:00.796Z,0.000000
2022-12-12T05:00:06.237Z,0.000000
2022-12-12T05:01:00.897Z,0.000000
2022-12-12T05:02:00.968Z,0.000000
2022-12-12T05:03:00.830Z,0.000000
2022-12-12T05:04:00.922Z,0.000000
2022-12-12T05:05:05.524Z,0.000000
2022-12-12T05:06:00.915Z,0.000000
2022-12-12T05:07:00.829Z,0.000000
2022-12-12T05:08:00.960Z,0.000000
2022-12-12T05:09:00.854Z,0.000000
2022-12-12T05:10:06.056Z,0.000000
2022-12-12T05:11:00.870Z,0.000000
2022-12-12T05:12:00.989Z,0.000000
2022-12-12T05:13:00.874Z,0.000000
2022-12-12T05:14:00.975Z,0.000000
2022-12-12T05:15:04.684Z,0.000000
2022-12-12T05:16:01.007Z,0.000000
2022-12-12T05:17:00.993Z,0.000000
2022-12-12T05:18:00.995Z,0.000000
2022-12-12T05:19:00.940Z,0.000000
2022-12-12T05:20:05.865Z,0.000000
2022-12-12T05:21:00.943Z,0.000000
2022-12-12T05:22:01.051Z,0.000000
2022-12-12T05:23:00.961Z,0.000000
2022-12-12T05:24:01.037Z,0.000000
2022-12-12T05:25:09.135Z,0.000000
2022-12-12T05:26:01.071Z,0.000000
2022-12-12T05:27:01.010Z,0.000000
2022-12-12T05:28:01.113Z,0.000000
2022-12-12T05:29:06.661Z,0.000000
2022-12-12T05:30:05.239Z,0.000000
2022-12-12T05:31:01.220Z,0.000000
2022-12-12T05:32:01.091Z,0.000000
2022-12-12T05:33:01.051Z,0.000000
2022-12-12T05:34:01.117Z,0.000000
2022-12-12T05:35:05.738Z,0.000000
2022-12-12T05:36:01.141Z,0.000000
2022-12-12T05:37:01.037Z,0.000000
2022-12-12T05:38:01.134Z,0.000000
2022-12-12T05:39:01.070Z,0.000000
2022-12-12T05:40:06.088Z,0.000000
2022-12-12T05:41:01.066Z,0.000000
2022-12-12T05:42:01.155Z,0.000000
2022-12-12T05:43:01.099Z,0.000000
2022-12-12T05:44:01.231Z,0.000000
2022-12-12T05:45:05.789Z,0.000000
2022-12-12T05:46:01.241Z,0.000000
2022-12-12T05:47:01.111Z,0.000000
2022-12-12T05:48:01.205Z,0.000000
2022-12-12T05:49:01.141Z,0.000000
2022-12-12T05:50:06.173Z,0.000000
2022-12-12T05:51:01.148Z,0.000000
2022-12-12T05:52:01.243Z,0.000000
2022-12-12T05:53:01.165Z,0.000000
2022-12-12T05:54:01.250Z,0.000000
2022-12-12T05:55:06.077Z,0.000000
2022-12-12T05:56:01.244Z,0.000000
2022-12-12T05:57:01.209Z,0.000000
2022-12-12T05:58:00.266Z,0.000000
2022-12-12T05:59:00.187Z,0.000000
2022-12-12T06:00:05.458Z,0.000000
2022-12-12T06:01:03.375Z,0.000000
2022-12-12T06:02:00.318Z,0.000000
2022-12-12T06:03:00.248Z,0.000000
2022-12-12T06:04:00.410Z,0.000000
2022-12-12T06:05:13.115Z,0.000000
2022-12-12T06:06:00.458Z,0.000000
2022-12-12T06:07:00.260Z,0.000000
2022-12-12T06:08:00.427Z,0.000000
2022-12-12T06:09:00.300Z,0.000000
2022-12-12T06:10:13.144Z,0.000000
2022-12-12T06:11:00.310Z,0.000000
2022-12-12T06:12:00.395Z,0.000000
2022-12-12T06:13:00.315Z,0.000000
2022-12-12T06:14:00.382Z,0.000000
2022-12-12T06:15:05.200Z,0.000000
2022-12-12T06:16:00.686Z,0.000000
2022-12-12T06:17:00.349Z,0.000000
2022-12-12T06:18:00.417Z,0.000000
2022-12-12T06:19:00.340Z,0.000000
2022-12-12T06:20:06.121Z,0.000000
2022-12-12T06:21:00.579Z,0.000000
2022-12-12T06:22:00.779Z,0.000000
2022-12-12T06:23:00.371Z,0.000000
2022-12-12T06:24:00.488Z,0.000000
2022-12-12T06:25:04.041Z,0.000000
2022-12-12T06:26:00.511Z,0.000000
2022-12-12T06:27:00.470Z,0.000000
2022-12-12T06:28:00.531Z,0.000000
2022-12-12T06:29:00.406Z,0.000000
2022-12-12T06:30:05.444Z,0.000000
2022-12-12T06:31:00.531Z,0.000000
2022-12-12T06:32:00.572Z,0.000000
2022-12-12T06:33:00.488Z,0.000000
2022-12-12T06:34:00.543Z,0.000000
2022-12-12T06:35:04.130Z,0.000000
2022-12-12T06:36:00.754Z,0.000000
2022-12-12T06:37:00.466Z,0.000000
2022-12-12T06:38:00.552Z,0.000000
2022-12-12T06:39:00.499Z,0.000000
2022-12-12T06:40:05.408Z,0.000000
2022-12-12T06:41:00.500Z,0.000000
2022-12-12T06:42:00.587Z,0.000000
2022-12-12T06:43:00.506Z,0.000000
2022-12-12T06:44:00.602Z,0.000000
2022-12-12T06:45:04.210Z,0.000000
2022-12-12T06:46:00.680Z,0.000000
2022-12-12T06:47:00.541Z,0.000000
2022-12-12T06:48:00.673Z,0.000000
2022-12-12T06:49:00.551Z,0.000000
2022-12-12T06:50:05.653Z,0.000000
2022-12-12T06:51:00.572Z,0.000000
2022-12-12T06:52:00.669Z,0.000000
2022-12-12T06:53:00.566Z,0.000000
2022-12-12T06:54:00.681Z,0.000000
2022-12-12T06:55:04.434Z,0.000000
2022-12-12T06:56:00.662Z,0.000000
2022-12-12T06:57:00.629Z,0.000000
2022-12-12T06:58:00.724Z,0.000000
2022-12-12T06:59:00.635Z,0.000000
2022-12-12T07:00:05.920Z,0.000000
2022-12-12T07:01:00.633Z,2.000000
2022-12-12T07:02:00.743Z,2.000000
2022-12-12T07:03:00.726Z,2.000000
2022-12-12T07:04:00.753Z,6.100000
2022-12-12T07:05:04.299Z,6.100000
2022-12-12T07:06:00.755Z,6.100000
2022-12-12T07:07:00.680Z,10.200000
2022-12-12T07:08:00.796Z,10.200000
2022-12-12T07:09:00.695Z,14.200000
2022-12-12T07:10:05.705Z,14.200000
2022-12-12T07:11:00.699Z,14.200000
2022-12-12T07:12:00.790Z,18.300000
2022-12-12T07:13:00.702Z,18.300000
2022-12-12T07:14:00.795Z,20.300000
2022-12-12T07:15:06.240Z,20.300000
2022-12-12T07:16:00.853Z,20.300000
2022-12-12T07:17:00.745Z,28.500000
2022-12-12T07:18:00.846Z,28.500000
2022-12-12T07:19:00.765Z,38.600000
2022-12-12T07:20:04.708Z,38.600000
2022-12-12T07:21:00.848Z,38.600000
2022-12-12T07:22:07.539Z,46.800000
2022-12-12T07:23:00.811Z,46.800000
2022-12-12T07:24:00.905Z,52.900000
2022-12-12T07:25:05.544Z,52.900000
2022-12-12T07:26:00.894Z,52.900000
2022-12-12T07:27:00.859Z,65.100000
2022-12-12T07:28:00.900Z,65.100000
2022-12-12T07:29:00.822Z,65.100000
2022-12-12T07:30:04.846Z,81.400000
2022-12-12T07:31:00.872Z,81.400000
2022-12-12T07:32:00.923Z,95.600000
2022-12-12T07:33:00.891Z,95.600000
2022-12-12T07:34:00.929Z,113.900000
2022-12-12T07:35:05.563Z,113.900000
2022-12-12T07:36:00.957Z,130.200000
2022-12-12T07:37:02.875Z,130.200000
2022-12-12T07:38:00.960Z,130.200000
2022-12-12T07:39:00.919Z,156.600000
2022-12-12T07:40:05.876Z,156.600000
2022-12-12T07:41:00.923Z,156.600000
2022-12-12T07:42:00.991Z,183.100000
2022-12-12T07:43:00.931Z,183.100000
2022-12-12T07:44:00.987Z,209.500000
2022-12-12T07:45:05.967Z,209.500000
2022-12-12T07:46:01.096Z,209.500000
2022-12-12T07:47:00.987Z,231.900000
2022-12-12T07:48:01.041Z,231.900000
2022-12-12T07:49:00.956Z,231.900000
2022-12-12T07:50:06.002Z,284.800000
2022-12-12T07:51:01.054Z,284.800000
2022-12-12T07:52:01.068Z,339.700000
2022-12-12T07:53:00.992Z,339.700000
2022-12-12T07:54:01.073Z,339.700000
2022-12-12T07:55:07.899Z,378.300000
2022-12-12T07:56:01.089Z,378.300000
2022-12-12T07:57:01.055Z,427.100000
2022-12-12T07:58:01.079Z,427.100000
2022-12-12T07:59:01.027Z,471.900000
2022-12-12T08:00:05.207Z,471.900000
2022-12-12T08:01:01.048Z,471.900000
2022-12-12T08:02:01.227Z,547.100000
2022-12-12T08:03:01.089Z,547.100000
2022-12-12T08:04:01.145Z,616.300000
2022-12-12T08:05:06.033Z,616.300000
2022-12-12T08:06:01.177Z,616.300000
2022-12-12T08:07:06.857Z,681.400000
2022-12-12T08:08:01.213Z,681.400000
2022-12-12T08:09:01.109Z,750.500000
2022-12-12T08:10:06.769Z,750.500000
2022-12-12T08:11:01.104Z,750.500000
2022-12-12T08:12:01.199Z,844.100000
2022-12-12T08:13:01.128Z,844.100000
2022-12-12T08:14:01.208Z,844.100000
2022-12-12T08:15:04.785Z,905.100000
2022-12-12T08:16:01.245Z,905.100000
2022-12-12T08:17:01.175Z,956.000000
2022-12-12T08:18:01.245Z,956.000000
2022-12-12T08:19:01.171Z,1015.000000
2022-12-12T08:20:06.591Z,1015.000000
2022-12-12T08:21:01.193Z,1015.000000
2022-12-12T08:22:00.281Z,1076.000000
2022-12-12T08:23:00.202Z,1076.000000
2022-12-12T08:24:00.284Z,1076.000000
2022-12-12T08:25:03.838Z,1155.300000
2022-12-12T08:26:00.313Z,1155.300000
2022-12-12T08:27:00.225Z,1155.300000
2022-12-12T08:28:00.288Z,1222.400000
2022-12-12T08:29:00.225Z,1222.400000
2022-12-12T08:30:07.423Z,1305.800000
2022-12-12T08:31:00.326Z,1305.800000
2022-12-12T08:32:00.387Z,1379.100000
2022-12-12T08:33:03.629Z,1379.100000
2022-12-12T08:34:00.335Z,1379.100000
2022-12-12T08:35:08.239Z,1421.800000
2022-12-12T08:36:00.367Z,1421.800000
2022-12-12T08:37:00.288Z,1421.800000
2022-12-12T08:38:00.423Z,1450.200000
2022-12-12T08:39:00.330Z,1450.200000
2022-12-12T08:40:05.365Z,1482.800000
2022-12-12T08:41:00.335Z,1482.800000
2022-12-12T08:42:00.413Z,1517.400000
2022-12-12T08:43:00.324Z,1517.400000
2022-12-12T08:44:00.437Z,1517.400000
2022-12-12T08:45:05.427Z,1623.100000
2022-12-12T08:46:00.395Z,1623.100000
2022-12-12T08:47:00.416Z,1623.100000
2022-12-12T08:48:00.433Z,1806.000000
2022-12-12T08:49:00.365Z,1806.000000
2022-12-12T08:50:05.638Z,1806.000000
2022-12-12T08:51:00.397Z,2002.000000
2022-12-12T08:52:00.469Z,2002.000000
2022-12-12T08:53:00.389Z,2172.000000
2022-12-12T08:54:00.523Z,2172.000000
2022-12-12T08:55:07.635Z,3175.000000
2022-12-12T08:56:00.473Z,3175.000000
2022-12-12T08:57:00.428Z,3175.000000
2022-12-12T08:58:00.474Z,2589.000000
2022-12-12T08:59:00.430Z,2589.000000
2022-12-12T09:00:09.989Z,2589.000000
2022-12-12T09:01:00.447Z,3271.000000
2022-12-12T09:02:00.814Z,3271.000000
2022-12-12T09:03:00.515Z,2878.000000
2022-12-12T09:04:01.066Z,2878.000000
2022-12-12T09:05:12.197Z,4571.000000
2022-12-12T09:06:01.446Z,4571.000000
2022-12-12T09:07:06.601Z,4571.000000
2022-12-12T09:08:00.694Z,3873.000000
2022-12-12T09:09:00.519Z,3873.000000
2022-12-12T09:10:05.188Z,3873.000000
2022-12-12T09:11:00.555Z,5059.000000
2022-12-12T09:12:01.186Z,5059.000000
2022-12-12T09:13:00.527Z,5059.000000
2022-12-12T09:14:01.284Z,3954.000000
2022-12-12T09:15:05.434Z,3954.000000
2022-12-12T09:16:00.681Z,3407.000000
2022-12-12T09:17:00.574Z,3407.000000
2022-12-12T09:18:00.623Z,3964.000000
2022-12-12T09:19:00.570Z,3964.000000
2022-12-12T09:20:04.770Z,3964.000000
2022-12-12T09:21:00.582Z,4323.000000
2022-12-12T09:22:00.652Z,4323.000000
2022-12-12T09:23:00.621Z,3279.000000
2022-12-12T09:24:00.687Z,3279.000000
2022-12-12T09:25:06.178Z,3279.000000
2022-12-12T09:26:00.666Z,3145.000000
2022-12-12T09:27:00.642Z,3145.000000
2022-12-12T09:28:00.685Z,3049.000000
2022-12-12T09:29:00.645Z,3049.000000
2022-12-12T09:30:05.452Z,3049.000000
2022-12-12T09:31:00.679Z,3790.000000
2022-12-12T09:32:00.771Z,3790.000000
2022-12-12T09:33:00.664Z,3790.000000
2022-12-12T09:34:00.738Z,5426.000000
2022-12-12T09:35:05.312Z,5426.000000
2022-12-12T09:36:00.806Z,4129.000000
2022-12-12T09:37:00.697Z,4129.000000
2022-12-12T09:38:00.753Z,3657.000000
2022-12-12T09:39:00.691Z,3657.000000
2022-12-12T09:40:04.412Z,3790.000000
2022-12-12T09:41:00.755Z,3790.000000
2022-12-12T09:42:00.783Z,3790.000000
2022-12-12T09:43:00.718Z,3822.000000
2022-12-12T09:44:00.779Z,3822.000000
2022-12-12T09:45:05.345Z,3822.000000
2022-12-12T09:46:00.847Z,3998.000000
2022-12-12T09:47:00.770Z,3998.000000
2022-12-12T09:48:00.851Z,4159.000000
2022-12-12T09:49:00.746Z,4159.000000
2022-12-12T09:50:04.533Z,4309.000000
2022-12-12T09:51:00.787Z,4309.000000
2022-12-12T09:52:00.839Z,4309.000000
2022-12-12T09:53:00.827Z,6003.000000
2022-12-12T09:54:00.862Z,6003.000000
2022-12-12T09:55:07.384Z,6003.000000
2022-12-12T09:56:00.888Z,4610.000000
2022-12-12T09:57:00.862Z,4610.000000
2022-12-12T09:58:00.899Z,5232.000000
2022-12-12T09:59:00.847Z,5232.000000
2022-12-12T10:00:06.553Z,5493.000000
2022-12-12T10:01:00.883Z,5493.000000
2022-12-12T10:02:01.078Z,5493.000000
2022-12-12T10:03:00.868Z,5493.000000
2022-12-12T10:04:00.924Z,5352.000000
2022-12-12T10:05:05.934Z,5352.000000
2022-12-12T10:06:28.703Z,4969.000000
2022-12-12T10:07:00.884Z,4969.000000
2022-12-12T10:08:01.004Z,4969.000000
2022-12-12T10:09:00.902Z,4432.000000
2022-12-12T10:10:04.754Z,4432.000000
2022-12-12T10:11:00.945Z,4624.000000
2022-12-12T10:12:04.914Z,4624.000000
2022-12-12T10:13:00.956Z,4546.000000
2022-12-12T10:14:00.991Z,4546.000000
2022-12-12T10:15:05.584Z,4546.000000
2022-12-12T10:16:01.095Z,3999.000000
2022-12-12T10:17:00.997Z,3999.000000
2022-12-12T10:18:01.041Z,3999.000000
2022-12-12T10:19:00.957Z,3843.000000
2022-12-12T10:20:05.934Z,3843.000000
2022-12-12T10:21:00.992Z,3958.000000
2022-12-12T10:22:01.043Z,3958.000000
2022-12-12T10:23:01.394Z,3958.000000
2022-12-12T10:24:01.086Z,4153.000000
2022-12-12T10:25:07.781Z,4153.000000
2022-12-12T10:26:01.086Z,4153.000000
2022-12-12T10:27:01.023Z,4599.000000
2022-12-12T10:28:01.101Z,4599.000000
2022-12-12T10:29:01.103Z,6843.000000
2022-12-12T10:30:05.286Z,6843.000000
2022-12-12T10:31:01.061Z,6843.000000
2022-12-12T10:32:01.112Z,6463.000000
2022-12-12T10:33:01.060Z,6463.000000
2022-12-12T10:34:01.670Z,5871.000000
2022-12-12T10:35:14.905Z,5871.000000
2022-12-12T10:36:01.164Z,6678.000000
2022-12-12T10:37:01.072Z,6678.000000
2022-12-12T10:38:01.161Z,6678.000000
2022-12-12T10:39:01.121Z,6716.000000
2022-12-12T10:40:05.123Z,6716.000000
2022-12-12T10:41:01.159Z,6716.000000
2022-12-12T10:42:01.202Z,7140.000000
2022-12-12T10:43:01.117Z,7140.000000
2022-12-12T10:44:01.217Z,7119.000000
2022-12-12T10:45:08.399Z,7119.000000
2022-12-12T10:46:01.429Z,6931.000000
2022-12-12T10:47:01.281Z,6931.000000
2022-12-12T10:48:01.238Z,6931.000000
2022-12-12T10:49:01.177Z,7179.000000
2022-12-12T10:50:08.698Z,7179.000000
2022-12-12T10:51:00.197Z,7179.000000
2022-12-12T10:52:00.279Z,7057.000000
2022-12-12T10:53:00.236Z,7057.000000
2022-12-12T10:54:00.276Z,7264.000000
2022-12-12T10:55:07.229Z,7264.000000
2022-12-12T10:56:00.293Z,7264.000000
2022-12-12T10:57:00.259Z,7193.000000
2022-12-12T10:58:00.335Z,7193.000000
2022-12-12T10:59:00.249Z,7430.000000
2022-12-12T11:00:04.638Z,7430.000000
2022-12-12T11:01:00.370Z,7430.000000
2022-12-12T11:02:10.074Z,7255.000000
2022-12-12T11:03:00.749Z,7255.000000
2022-12-12T11:04:00.365Z,7402.000000
2022-12-12T11:05:05.199Z,7402.000000
2022-12-12T11:06:00.891Z,7402.000000
2022-12-12T11:07:00.311Z,7334.000000
2022-12-12T11:08:00.500Z,7334.000000
2022-12-12T11:09:00.349Z,7295.000000
2022-12-12T11:10:05.318Z,7295.000000
2022-12-12T11:11:00.374Z,7295.000000
2022-12-12T11:12:00.437Z,7429.000000
2022-12-12T11:13:00.375Z,7429.000000
2022-12-12T11:14:00.434Z,7450.000000
2022-12-12T11:15:05.009Z,7450.000000
2022-12-12T11:16:00.493Z,7450.000000
2022-12-12T11:17:00.539Z,7319.000000
2022-12-12T11:18:05.875Z,7319.000000
2022-12-12T11:19:00.413Z,7331.000000
2022-12-12T11:20:04.375Z,7331.000000
2022-12-12T11:21:00.460Z,7331.000000
2022-12-12T11:22:00.512Z,7319.000000
2022-12-12T11:23:00.473Z,7319.000000
2022-12-12T11:24:00.565Z,7319.000000